Time;durP1;ratioP1;P1;durP2;ratioP2;P2;SDS_P1;SDS_P2;PMS_P1;PMS_P2;Temp;Humidity;BMP_temperature;BMP_pressure;BME280_temperature;BME280_humidity;BME280_pressure;Samples;Min_cycle;Max_cycle;Signal;HPM_P1;HPM_P2
2023/04/12 00:00:53;;;;;;;1999.90;999.90;;;3.80;99.90;;;;;;5012596;28;20436;-75
2023/04/12 00:03:20;;;;;;;1999.90;999.90;;;3.80;99.90;;;;;;5017871;28;20446;-74
2023/04/12 00:05:53;;;;;;;1999.90;999.90;;;3.90;99.90;;;;;;5013152;28;20430;-73
2023/04/12 00:08:23;;;;;;;1999.90;999.90;;;4.00;99.90;;;;;;5021793;28;20856;-74
2023/04/12 00:10:50;;;;;;;1999.90;999.90;;;4.00;99.90;;;;;;5010941;28;20444;-76
2023/04/12 00:13:17;;;;;;;1999.90;999.90;;;4.00;99.90;;;;;;5013644;28;20438;-74
2023/04/12 00:15:44;;;;;;;1999.90;999.90;;;3.80;99.90;;;;;;5014730;28;20429;-75
2023/04/12 00:18:11;;;;;;;1999.90;999.90;;;3.90;99.90;;;;;;5022284;28;20860;-77
2023/04/12 00:20:38;;;;;;;1999.90;999.90;;;3.90;99.90;;;;;;5020207;28;20501;-73
2023/04/12 00:23:06;;;;;;;1999.90;999.90;;;3.70;99.90;;;;;;5017150;28;20428;-74
2023/04/12 00:25:33;;;;;;;1999.90;999.90;;;3.70;99.90;;;;;;5010153;28;20834;-73
2023/04/12 00:27:59;;;;;;;1999.90;999.90;;;3.60;99.90;;;;;;5017203;28;20508;-73
2023/04/12 00:30:27;;;;;;;1999.90;999.90;;;3.60;99.90;;;;;;5013598;28;20432;-77
2023/04/12 00:32:53;;;;;;;1999.90;999.90;;;3.50;99.90;;;;;;5017386;28;20563;-74
2023/04/12 00:35:20;;;;;;;1999.90;999.90;;;3.50;99.90;;;;;;5015340;28;20495;-74
2023/04/12 00:37:47;;;;;;;1999.90;999.90;;;3.50;99.90;;;;;;5011675;28;20482;-73
2023/04/12 00:40:15;;;;;;;1999.90;999.90;;;3.60;99.90;;;;;;5011212;28;20437;-74
2023/04/12 00:42:42;;;;;;;1999.90;999.90;;;3.60;99.90;;;;;;5012103;28;20440;-73
2023/04/12 00:45:10;;;;;;;1999.90;999.90;;;3.70;99.90;;;;;;5013667;28;20440;-73
2023/04/12 00:47:37;;;;;;;1999.90;999.90;;;3.90;99.90;;;;;;5017008;28;20439;-70
2023/04/12 00:50:05;;;;;;;1999.90;999.90;;;3.80;99.90;;;;;;5018205;28;20439;-73
2023/04/12 00:52:34;;;;;;;1999.90;999.90;;;3.70;99.90;;;;;;5014829;28;20991;-75
2023/04/12 00:55:01;;;;;;;1999.90;999.90;;;3.70;99.90;;;;;;5018589;28;20486;-74
2023/04/12 00:57:33;;;;;;;1999.90;999.90;;;3.80;99.90;;;;;;5019976;28;20439;-73
2023/04/12 01:00:00;;;;;;;1999.90;999.90;;;3.90;99.90;;;;;;5025312;28;20436;-71
2023/04/12 01:02:29;;;;;;;1999.90;999.90;;;4.00;99.90;;;;;;5008645;28;20433;-73
2023/04/12 01:04:57;;;;;;;1999.90;999.90;;;4.30;99.90;;;;;;5011600;28;20835;-75
2023/04/12 01:07:45;;;;;;;1999.90;999.90;;;4.50;99.90;;;;;;5016259;28;20468;-73
2023/04/12 01:10:20;;;;;;;1999.90;999.90;;;4.60;99.90;;;;;;5017041;28;20459;-75
2023/04/12 01:12:56;;;;;;;1999.90;999.90;;;4.60;99.90;;;;;;5021871;28;20440;-74
2023/04/12 01:15:25;;;;;;;1999.90;999.90;;;4.50;99.90;;;;;;5022275;28;20431;-76
2023/04/12 01:17:59;;;;;;;1999.90;999.90;;;4.50;99.90;;;;;;5012606;28;20432;-77
2023/04/12 01:20:30;;;;;;;1999.90;999.90;;;4.60;99.90;;;;;;5008540;28;20957;-76
2023/04/12 01:23:13;;;;;;;1999.90;999.90;;;4.90;99.90;;;;;;5018498;28;20436;-76
2023/04/12 01:25:52;;;;;;;1999.90;999.90;;;4.80;99.90;;;;;;5021130;28;20501;-72
2023/04/12 01:28:23;;;;;;;1999.90;999.90;;;4.90;99.90;;;;;;5020798;28;20509;-72
2023/04/12 01:30:51;;;;;;;1999.90;999.90;;;5.10;99.90;;;;;;5021413;28;20439;-72
2023/04/12 01:33:18;;;;;;;1999.90;999.90;;;5.20;99.90;;;;;;5011008;28;20529;-72
2023/04/12 01:35:46;;;;;;;1999.90;999.90;;;5.20;99.90;;;;;;5017274;28;20486;-75
2023/04/12 01:38:13;;;;;;;1999.90;999.90;;;5.20;99.90;;;;;;5021770;28;20932;-74
2023/04/12 01:40:41;;;;;;;1999.90;999.90;;;5.30;99.90;;;;;;5024201;28;20465;-75
2023/04/12 01:43:09;;;;;;;1999.90;999.90;;;5.30;99.90;;;;;;5018982;28;20486;-75
2023/04/12 01:45:37;;;;;;;1999.90;999.90;;;5.40;99.90;;;;;;5013366;28;20511;-76
2023/04/12 01:48:06;;;;;;;1999.90;999.90;;;5.40;99.90;;;;;;5017731;28;20443;-76
2023/04/12 01:50:41;;;;;;;1999.90;999.90;;;5.50;99.90;;;;;;5018845;28;20435;-74
2023/04/12 01:53:12;;;;;;;1999.90;999.90;;;5.80;99.90;;;;;;5022856;28;20438;-73
2023/04/12 01:55:42;;;;;;;1999.90;999.90;;;5.90;99.90;;;;;;5020323;28;20429;-73
2023/04/12 01:58:11;;;;;;;1999.90;999.90;;;6.00;99.90;;;;;;5010948;28;20879;-76
2023/04/12 02:00:41;;;;;;;1999.90;999.90;;;6.00;99.90;;;;;;5014526;28;20910;-75
2023/04/12 02:03:11;;;;;;;1999.90;999.90;;;5.90;99.90;;;;;;5020110;28;20497;-75
2023/04/12 02:05:38;;;;;;;1999.90;999.90;;;5.60;99.90;;;;;;5022012;28;20489;-73
2023/04/12 02:08:06;;;;;;;1999.90;999.90;;;5.50;99.90;;;;;;5019540;28;20439;-73
2023/04/12 02:10:35;;;;;;;1999.90;999.90;;;5.50;99.90;;;;;;5012079;28;20437;-75
2023/04/12 02:13:02;;;;;;;1999.90;999.90;;;5.40;99.90;;;;;;5012651;28;20437;-78
2023/04/12 02:15:29;;;;;;;1999.90;999.90;;;5.40;99.90;;;;;;5010442;28;20569;-75
2023/04/12 02:17:58;;;;;;;1999.90;999.90;;;5.50;99.90;;;;;;5014870;28;20491;-73
2023/04/12 02:20:25;;;;;;;1999.90;999.90;;;5.50;99.90;;;;;;5023227;28;20431;-75
2023/04/12 02:22:52;;;;;;;1999.90;999.90;;;5.40;99.90;;;;;;5016106;28;20447;-76
2023/04/12 02:25:19;;;;;;;1999.90;999.90;;;5.40;99.90;;;;;;5010646;28;20433;-75
2023/04/12 02:27:47;;;;;;;1999.90;999.90;;;5.50;99.90;;;;;;5011660;28;20436;-76
2023/04/12 02:30:14;;;;;;;1999.90;999.90;;;5.60;99.90;;;;;;5016033;28;20430;-75
2023/04/12 02:32:44;;;;;;;1999.90;999.90;;;5.70;99.90;;;;;;5015770;28;20981;-75
2023/04/12 02:35:13;;;;;;;1999.90;999.90;;;5.60;99.90;;;;;;5015308;28;20510;-75
2023/04/12 02:37:40;;;;;;;1999.90;999.90;;;5.50;99.90;;;;;;5020643;28;21016;-79
2023/04/12 02:40:10;;;;;;;1999.90;999.90;;;5.50;99.90;;;;;;5012869;28;20431;-73
2023/04/12 02:42:37;;;;;;;1999.90;999.90;;;5.30;99.90;;;;;;5016562;28;20464;-74
2023/04/12 02:45:04;;;;;;;1999.90;999.90;;;5.50;99.90;;;;;;5022475;28;20440;-70
2023/04/12 02:47:30;;;;;;;1999.90;999.90;;;5.90;99.90;;;;;;5023447;28;20432;-73
2023/04/12 02:49:57;;;;;;;1999.90;999.90;;;6.10;99.90;;;;;;5018241;28;20468;-74
2023/04/12 02:52:28;;;;;;;1999.90;999.90;;;6.10;99.90;;;;;;5013575;28;20503;-73
2023/04/12 02:54:55;;;;;;;1999.90;999.90;;;6.20;99.90;;;;;;5016732;28;20447;-73
2023/04/12 02:57:22;;;;;;;1999.90;999.90;;;6.20;99.90;;;;;;5020972;28;20461;-75
2023/04/12 02:59:51;;;;;;;1999.90;999.90;;;6.20;99.90;;;;;;5018008;28;20958;-74
2023/04/12 03:02:18;;;;;;;1999.90;999.90;;;6.20;99.90;;;;;;5028941;28;20947;-74
2023/04/12 03:04:45;;;;;;;1999.90;999.90;;;6.20;99.90;;;;;;5012359;28;20432;-76
2023/04/12 03:07:12;;;;;;;1999.90;999.90;;;6.20;99.90;;;;;;5013055;28;20466;-75
2023/04/12 03:09:41;;;;;;;1999.90;999.90;;;6.20;99.90;;;;;;5014290;28;20437;-75
2023/04/12 03:12:08;;;;;;;1999.90;999.90;;;6.20;99.90;;;;;;5022478;28;20439;-77
2023/04/12 03:14:35;;;;;;;1999.90;999.90;;;6.10;99.90;;;;;;5017088;28;20434;-74
2023/04/12 03:17:01;;;;;;;1999.90;999.90;;;6.10;99.90;;;;;;5024367;28;20483;-73
2023/04/12 03:19:31;;;;;;;1999.90;999.90;;;6.00;99.90;;;;;;5012303;28;20834;-75
2023/04/12 03:21:58;;;;;;;1999.90;999.90;;;6.00;99.90;;;;;;5016647;28;20490;-73
2023/04/12 03:24:25;;;;;;;1999.90;999.90;;;6.00;99.90;;;;;;5017167;28;20489;-76
2023/04/12 03:26:53;;;;;;;1999.90;999.90;;;6.10;99.90;;;;;;5022860;28;20436;-74
2023/04/12 03:29:20;;;;;;;1999.90;999.90;;;6.10;99.90;;;;;;5023305;28;20438;-71
2023/04/12 03:31:47;;;;;;;1999.90;999.90;;;6.00;99.90;;;;;;5015460;28;20440;-74
2023/04/12 03:34:14;;;;;;;1999.90;999.90;;;6.00;99.90;;;;;;5014867;28;20844;-78
2023/04/12 03:36:41;;;;;;;1999.90;999.90;;;6.00;99.90;;;;;;5017528;28;20437;-72
2023/04/12 03:39:08;;;;;;;1999.90;999.90;;;6.00;99.90;;;;;;5022085;28;20431;-71
2023/04/12 03:41:34;;;;;;;1999.90;999.90;;;6.00;99.90;;;;;;5026175;28;20438;-79
2023/04/12 03:44:03;;;;;;;1999.90;999.90;;;6.10;99.90;;;;;;5017579;28;20819;-73
2023/04/12 03:46:30;;;;;;;1999.90;999.90;;;6.60;99.90;;;;;;5006870;28;20504;-75
2023/04/12 03:48:57;;;;;;;1999.90;999.90;;;6.20;99.90;;;;;;5013349;28;20472;-74
2023/04/12 03:51:25;;;;;;;1999.90;999.90;;;6.20;99.90;;;;;;5018075;28;20493;-76
2023/04/12 03:53:52;;;;;;;1999.90;999.90;;;6.20;99.90;;;;;;5022719;28;20466;-74
2023/04/12 03:56:19;;;;;;;1999.90;999.90;;;6.10;99.90;;;;;;5018521;28;20427;-74
2023/04/12 03:58:46;;;;;;;1999.90;999.90;;;6.10;99.90;;;;;;5011385;28;20447;-74
2023/04/12 04:01:16;;;;;;;1999.90;999.90;;;6.10;99.90;;;;;;5016042;28;20812;-76
2023/04/12 04:03:43;;;;;;;1999.90;999.90;;;6.10;99.90;;;;;;5016835;28;20520;-75
2023/04/12 04:06:11;;;;;;;1999.90;999.90;;;6.30;99.90;;;;;;5020132;28;20797;-73
2023/04/12 04:08:38;;;;;;;1999.90;999.90;;;6.30;99.90;;;;;;5023571;28;20533;-73
2023/04/12 04:11:05;;;;;;;1999.90;999.90;;;6.40;99.90;;;;;;5007994;28;20880;-75
2023/04/12 04:13:32;;;;;;;1999.90;999.90;;;6.50;99.90;;;;;;5011901;28;20425;-72
2023/04/12 04:16:02;;;;;;;1999.90;999.90;;;6.60;99.90;;;;;;5014000;28;20428;-76
2023/04/12 04:18:30;;;;;;;1999.90;999.90;;;6.60;99.90;;;;;;5018962;28;20439;-75
2023/04/12 04:20:57;;;;;;;1999.90;999.90;;;6.70;99.90;;;;;;5018191;28;20472;-74
2023/04/12 04:23:24;;;;;;;1999.90;999.90;;;6.70;99.90;;;;;;5025461;28;20847;-76
2023/04/12 04:25:53;;;;;;;1999.90;999.90;;;6.60;99.90;;;;;;5014511;28;20444;-74
2023/04/12 04:28:19;;;;;;;1999.90;999.90;;;6.70;99.90;;;;;;5015638;28;20431;-75
2023/04/12 04:30:46;;;;;;;1999.90;999.90;;;6.70;99.90;;;;;;5020831;28;20923;-74
2023/04/12 04:33:14;;;;;;;1999.90;999.90;;;6.60;99.90;;;;;;5026788;28;20538;-74
2023/04/12 04:35:43;;;;;;;1999.90;999.90;;;6.50;99.90;;;;;;5018012;28;20444;-72
2023/04/12 04:38:10;;;;;;;1999.90;999.90;;;6.30;99.90;;;;;;5013177;28;20469;-74
2023/04/12 04:40:37;;;;;;;1999.90;999.90;;;6.20;99.90;;;;;;5014084;28;20511;-72
2023/04/12 04:43:04;;;;;;;1999.90;999.90;;;6.30;99.90;;;;;;5020211;28;20444;-75
2023/04/12 04:45:31;;;;;;;1999.90;999.90;;;6.40;99.90;;;;;;5014122;28;20440;-74
2023/04/12 04:47:58;;;;;;;1999.90;999.90;;;6.60;99.90;;;;;;5020314;28;20548;-71
2023/04/12 04:50:26;;;;;;;1999.90;999.90;;;6.70;99.90;;;;;;5023130;28;20440;-73
2023/04/12 04:52:54;;;;;;;1999.90;999.90;;;6.70;99.90;;;;;;5011475;28;20811;-73
2023/04/12 04:55:23;;;;;;;1999.90;999.90;;;6.60;99.90;;;;;;5012854;28;20494;-74
2023/04/12 04:57:50;;;;;;;1999.90;999.90;;;6.70;99.90;;;;;;5021769;28;20433;-76
2023/04/12 05:00:17;;;;;;;1999.90;999.90;;;6.60;99.90;;;;;;5020465;28;20432;-78
2023/04/12 05:02:44;;;;;;;1999.90;999.90;;;6.70;99.90;;;;;;5027794;28;20462;-74
2023/04/12 05:05:12;;;;;;;1999.90;999.90;;;6.70;99.90;;;;;;5013175;28;20436;-75
2023/04/12 05:07:39;;;;;;;1999.90;999.90;;;6.60;99.90;;;;;;5017057;28;20519;-74
2023/04/12 05:10:09;;;;;;;1999.90;999.90;;;6.90;99.90;;;;;;5019308;28;20481;-74
2023/04/12 05:12:35;;;;;;;1999.90;999.90;;;6.60;99.90;;;;;;5017949;28;20468;-73
2023/04/12 05:15:03;;;;;;;1999.90;999.90;;;6.50;99.90;;;;;;5020903;28;20440;-74
2023/04/12 05:17:30;;;;;;;1999.90;999.90;;;6.40;99.90;;;;;;5012917;28;20432;-72
2023/04/12 05:19:57;;;;;;;1999.90;999.90;;;6.30;99.90;;;;;;5015232;28;20490;-78
2023/04/12 05:22:24;;;;;;;1999.90;999.90;;;6.40;99.90;;;;;;5014243;28;20436;-75
2023/04/12 05:24:51;;;;;;;1999.90;999.90;;;6.60;99.90;;;;;;5021270;28;20436;-73
2023/04/12 05:27:19;;;;;;;1999.90;999.90;;;6.50;99.90;;;;;;5019387;28;20431;-73
2023/04/12 05:29:46;;;;;;;1999.90;999.90;;;6.40;99.90;;;;;;5026795;28;20492;-76
2023/04/12 05:32:12;;;;;;;1999.90;999.90;;;6.20;99.90;;;;;;5011745;28;20932;-73
2023/04/12 05:34:39;;;;;;;1999.90;999.90;;;6.10;99.90;;;;;;5015293;28;20582;-74
2023/04/12 05:37:06;;;;;;;1999.90;999.90;;;6.10;99.90;;;;;;5015901;28;20493;-73
2023/04/12 05:39:33;;;;;;;1999.90;999.90;;;6.40;99.90;;;;;;5018215;28;20945;-76
2023/04/12 05:42:00;;;;;;;1999.90;999.90;;;6.50;99.90;;;;;;5019415;28;20432;-75
2023/04/12 05:44:28;;;;;;;1999.90;999.90;;;6.90;99.90;;;;;;5025313;28;20444;-74
2023/04/12 05:46:55;;;;;;;1999.90;999.90;;;7.50;99.90;;;;;;5013941;28;20436;-78
2023/04/12 05:49:22;;;;;;;1999.90;999.90;;;7.90;99.90;;;;;;5016871;28;20488;-75
2023/04/12 05:51:48;;;;;;;1999.90;999.90;;;8.20;99.90;;;;;;5011215;28;20447;-72
2023/04/12 05:54:19;;;;;;;1999.90;999.90;;;8.40;99.90;;;;;;5011418;28;20443;-72
2023/04/12 05:56:46;;;;;;;1999.90;999.90;;;8.50;99.90;;;;;;5011726;28;20942;-73
2023/04/12 05:59:13;;;;;;;1999.90;999.90;;;8.60;99.90;;;;;;5012243;28;20842;-73
2023/04/12 06:01:43;;;;;;;1999.90;999.90;;;8.70;99.90;;;;;;5012615;28;20504;-75
2023/04/12 06:04:10;;;;;;;1999.90;999.90;;;8.80;99.90;;;;;;5012388;28;20452;-72
2023/04/12 06:06:36;;;;;;;1999.90;999.90;;;8.90;99.90;;;;;;5011683;28;20902;-75
2023/04/12 06:09:04;;;;;;;1999.90;999.90;;;9.00;99.90;;;;;;5009937;28;20510;-75
2023/04/12 06:11:32;;;;;;;1999.90;999.90;;;9.10;99.90;;;;;;5009061;28;20926;-75
2023/04/12 06:13:59;;;;;;;1999.90;999.90;;;9.10;99.90;;;;;;5007053;28;20436;-74
2023/04/12 06:16:26;;;;;;;1999.90;999.90;;;9.20;99.90;;;;;;5012218;28;20427;-75
2023/04/12 06:18:54;;;;;;;1999.90;999.90;;;9.10;99.90;;;;;;5010399;28;20441;-76
2023/04/12 06:21:20;;;;;;;1999.90;999.90;;;9.00;99.90;;;;;;5011878;28;20446;-76
2023/04/12 06:23:47;;;;;;;1999.90;999.90;;;8.90;99.90;;;;;;5012702;28;20436;-74
2023/04/12 06:26:13;;;;;;;1999.90;999.90;;;8.90;99.90;;;;;;5017100;28;20485;-73
2023/04/12 06:28:40;;;;;;;1999.90;999.90;;;8.90;99.90;;;;;;5014847;28;20480;-73
2023/04/12 06:31:07;;;;;;;1999.90;999.90;;;9.00;99.90;;;;;;5016643;28;20931;-73
2023/04/12 06:33:35;;;;;;;1999.90;999.90;;;8.90;99.90;;;;;;5011062;28;20463;-75
2023/04/12 06:36:03;;;;;;;1999.90;999.90;;;8.80;99.90;;;;;;5015555;28;20464;-75
2023/04/12 06:38:30;;;;;;;1999.90;999.90;;;8.80;99.90;;;;;;5012081;28;20432;-73
2023/04/12 06:40:57;;;;;;;1999.90;999.90;;;8.90;99.90;;;;;;5015233;28;21433;-76
2023/04/12 06:43:23;;;;;;;1999.90;999.90;;;8.90;99.90;;;;;;5013571;28;20434;-73
2023/04/12 06:45:50;;;;;;;1999.90;999.90;;;9.00;99.90;;;;;;5012044;28;20436;-72
2023/04/12 06:48:17;;;;;;;1999.90;999.90;;;9.10;99.90;;;;;;5012036;28;20429;-73
2023/04/12 06:50:45;;;;;;;1999.90;999.90;;;9.10;99.90;;;;;;5018671;28;20435;-73
2023/04/12 06:53:13;;;;;;;1999.90;999.90;;;9.40;99.90;;;;;;5024250;28;20430;-74
2023/04/12 06:55:40;;;;;;;1999.90;999.90;;;9.60;99.90;;;;;;5015559;28;20428;-73
2023/04/12 06:58:07;;;;;;;1999.90;999.90;;;9.60;99.90;;;;;;5013074;28;20432;-75
2023/04/12 07:00:33;;;;;;;1999.90;999.90;;;9.80;99.90;;;;;;5016751;28;20951;-75
2023/04/12 07:03:00;;;;;;;1999.90;999.90;;;9.90;99.90;;;;;;5014963;28;20811;-76
2023/04/12 07:05:27;;;;;;;1999.90;999.90;;;10.10;99.90;;;;;;5030538;28;20419;-76
2023/04/12 07:07:53;;;;;;;1999.90;999.90;;;10.30;99.90;;;;;;5030869;28;20411;-76
2023/04/12 07:10:21;;;;;;;1999.90;999.90;;;10.50;99.90;;;;;;5030623;28;20426;-76
2023/04/12 07:12:48;;;;;;;1999.90;999.90;;;10.50;99.90;;;;;;5030649;28;20497;-76
2023/04/12 07:15:15;;;;;;;1999.90;999.90;;;10.50;99.90;;;;;;5027347;28;20415;-74
2023/04/12 07:17:41;;;;;;;1999.90;999.90;;;10.60;99.90;;;;;;5010987;28;20491;-75
2023/04/12 07:20:09;;;;;;;1999.90;999.90;;;10.70;99.90;;;;;;5010309;28;20822;-75
2023/04/12 07:22:36;;;;;;;1999.90;999.90;;;10.70;99.90;;;;;;5010870;28;20416;-76
2023/04/12 07:25:04;;;;;;;1999.90;999.90;;;10.90;99.90;;;;;;5010649;28;20786;-75
2023/04/12 07:27:32;;;;;;;1999.90;999.90;;;11.10;99.90;;;;;;5010840;28;20420;-75
2023/04/12 07:29:58;;;;;;;1999.90;999.90;;;11.30;99.90;;;;;;5008601;28;20437;-75
2023/04/12 07:32:26;;;;;;;1999.90;999.90;;;11.50;99.90;;;;;;5011851;28;20443;-75
2023/04/12 07:34:52;;;;;;;1999.90;999.90;;;11.70;99.90;;;;;;5014119;28;20498;-74
2023/04/12 07:37:19;;;;;;;1999.90;999.90;;;11.60;99.90;;;;;;5010654;28;20852;-75
2023/04/12 07:39:46;;;;;;;1999.90;999.90;;;11.60;99.90;;;;;;5010532;28;20447;-75
2023/04/12 07:42:12;;;;;;;1999.90;999.90;;;11.70;99.90;;;;;;5008856;28;20440;-75
2023/04/12 07:44:40;;;;;;;1999.90;999.90;;;11.90;99.90;;;;;;5010694;28;20417;-72
2023/04/12 07:47:07;;;;;;;1999.90;999.90;;;12.10;99.90;;;;;;5010516;28;20412;-71
2023/04/12 07:49:34;;;;;;;1999.90;999.90;;;12.00;99.90;;;;;;5010529;28;20463;-75
2023/04/12 07:52:00;;;;;;;1999.90;999.90;;;11.70;99.90;;;;;;5008333;28;20441;-75
2023/04/12 07:54:28;;;;;;;1999.90;999.90;;;11.70;99.90;;;;;;5010311;28;20440;-75
2023/04/12 07:56:58;;;;;;;1999.90;999.90;;;11.80;99.90;;;;;;5014748;28;20451;-76
2023/04/12 07:59:25;;;;;;;1999.90;999.90;;;11.60;99.90;;;;;;5014003;28;20444;-75
2023/04/12 08:01:53;;;;;;;1999.90;999.90;;;11.60;99.90;;;;;;5021972;28;20465;-73
2023/04/12 08:04:20;;;;;;;1999.90;999.90;;;11.50;99.90;;;;;;5028534;28;20477;-75
2023/04/12 08:06:47;;;;;;;1999.90;999.90;;;11.40;99.90;;;;;;5018814;28;20432;-75
2023/04/12 08:09:13;;;;;;;1999.90;999.90;;;11.30;99.90;;;;;;5014100;28;20420;-71
2023/04/12 08:11:40;;;;;;;1999.90;999.90;;;11.50;99.90;;;;;;5015237;28;20428;-76
2023/04/12 08:14:07;;;;;;;1999.90;999.90;;;11.60;99.90;;;;;;5015129;28;20420;-73
2023/04/12 08:16:33;;;;;;;1999.90;999.90;;;11.60;99.90;;;;;;5015953;28;20412;-72
2023/04/12 08:19:01;;;;;;;1999.90;999.90;;;11.50;99.90;;;;;;5013855;28;20436;-75
2023/04/12 08:21:28;;;;;;;1999.90;999.90;;;11.50;99.90;;;;;;5014913;28;20420;-75
2023/04/12 08:23:55;;;;;;;1999.90;999.90;;;11.60;99.90;;;;;;5014047;28;20429;-73
2023/04/12 08:26:22;;;;;;;1999.90;999.90;;;11.70;99.90;;;;;;5013720;28;20474;-73
2023/04/12 08:28:48;;;;;;;1999.90;999.90;;;11.70;99.90;;;;;;5013978;28;20422;-73
2023/04/12 08:31:15;;;;;;;1999.90;999.90;;;11.70;99.90;;;;;;5013743;28;20448;-76
2023/04/12 08:33:42;;;;;;;1999.90;999.90;;;11.50;99.90;;;;;;5012635;28;20914;-74
2023/04/12 08:36:10;;;;;;;1999.90;999.90;;;11.50;99.90;;;;;;5014525;28;20838;-71
2023/04/12 08:38:37;;;;;;;1999.90;999.90;;;11.40;99.90;;;;;;5015358;28;20502;-73
2023/04/12 08:41:04;;;;;;;1999.90;999.90;;;11.30;99.90;;;;;;5014137;28;20844;-73
2023/04/12 08:43:33;;;;;;;1999.90;999.90;;;11.50;99.90;;;;;;5013777;28;20520;-74
2023/04/12 08:46:00;;;;;;;1999.90;999.90;;;11.50;99.90;;;;;;5013521;28;20439;-75
2023/04/12 08:48:28;;;;;;;1999.90;999.90;;;11.60;99.90;;;;;;5011775;28;20835;-74
2023/04/12 08:50:56;;;;;;;1999.90;999.90;;;11.50;99.90;;;;;;5013105;28;20467;-74
2023/04/12 08:53:25;;;;;;;1999.90;999.90;;;11.60;99.90;;;;;;5014691;28;20885;-74
2023/04/12 08:55:52;;;;;;;1999.90;999.90;;;11.40;99.90;;;;;;5014040;28;20806;-69
2023/04/12 08:58:20;;;;;;;1999.90;999.90;;;11.30;99.90;;;;;;5014989;28;20510;-73
2023/04/12 09:00:47;;;;;;;1999.90;999.90;;;11.20;99.90;;;;;;5013570;28;20441;-72
2023/04/12 09:03:14;;;;;;;1999.90;999.90;;;11.00;99.90;;;;;;5015301;28;20970;-70
2023/04/12 09:05:41;;;;;;;1999.90;999.90;;;11.00;99.90;;;;;;5014332;28;20443;-72
2023/04/12 09:08:08;;;;;;;1999.90;999.90;;;11.10;99.90;;;;;;5015380;28;21009;-70
2023/04/12 09:10:38;;;;;;;1999.90;999.90;;;11.00;99.90;;;;;;5015741;28;20895;-70
2023/04/12 09:13:05;;;;;;;1999.90;999.90;;;11.00;99.90;;;;;;5015300;28;20417;-71
2023/04/12 09:15:33;;;;;;;1999.90;999.90;;;11.00;99.90;;;;;;5008298;28;20444;-74
2023/04/12 09:18:05;;;;;;;1999.90;999.90;;;11.00;99.90;;;;;;5024315;28;20458;-73
2023/04/12 09:20:32;;;;;;;1999.90;999.90;;;10.80;99.90;;;;;;5029464;28;20990;-72
2023/04/12 09:22:59;;;;;;;1999.90;999.90;;;10.90;99.90;;;;;;5035063;28;20458;-73
2023/04/12 09:25:39;;;;;;;1999.90;999.90;;;11.00;99.90;;;;;;5034826;28;20508;-73
2023/04/12 09:28:18;;;;;;;1999.90;999.90;;;10.90;99.90;;;;;;5024870;28;20464;-74
2023/04/12 09:30:50;;;;;;;1999.90;999.90;;;10.90;99.90;;;;;;5014614;28;20420;-74
2023/04/12 09:33:17;;;;;;;1999.90;999.90;;;10.90;99.90;;;;;;5014492;28;20907;-72
2023/04/12 09:35:44;;;;;;;1999.90;999.90;;;10.90;99.90;;;;;;5014249;28;20447;-74
2023/04/12 09:38:11;;;;;;;1999.90;999.90;;;10.90;99.90;;;;;;5014279;28;20496;-73
2023/04/12 09:40:39;;;;;;;1999.90;999.90;;;10.90;99.90;;;;;;5014342;28;20417;-71
2023/04/12 09:43:07;;;;;;;1999.90;999.90;;;10.80;99.90;;;;;;5012415;28;20495;-69
2023/04/12 09:45:36;;;;;;;1999.90;999.90;;;10.70;99.90;;;;;;5015028;28;20510;-71
2023/04/12 09:48:03;;;;;;;1999.90;999.90;;;10.70;99.90;;;;;;5013751;28;20427;-72
2023/04/12 09:50:32;;;;;;;1999.90;999.90;;;10.70;99.90;;;;;;5014175;28;20507;-72
2023/04/12 09:53:00;;;;;;;1999.90;999.90;;;10.70;99.90;;;;;;5013770;28;20815;-75
2023/04/12 09:55:28;;;;;;;1999.90;999.90;;;10.70;99.90;;;;;;5012324;28;20436;-72
2023/04/12 09:57:56;;;;;;;1999.90;999.90;;;10.70;99.90;;;;;;5014243;28;20437;-76
2023/04/12 10:00:25;;;;;;;1999.90;999.90;;;10.60;99.90;;;;;;5012859;28;20451;-72
2023/04/12 10:02:54;;;;;;;1999.90;999.90;;;10.40;99.90;;;;;;5009867;28;20855;-71
2023/04/12 10:05:24;;;;;;;1999.90;999.90;;;10.40;99.90;;;;;;5011853;28;20448;-75
2023/04/12 10:07:51;;;;;;;1999.90;999.90;;;10.50;99.90;;;;;;5006452;28;20439;-72
2023/04/12 10:10:20;;;;;;;1999.90;999.90;;;10.40;99.90;;;;;;5008970;28;20432;-75
2023/04/12 10:12:48;;;;;;;1999.90;999.90;;;10.40;99.90;;;;;;5010095;28;20520;-72
2023/04/12 10:15:17;;;;;;;1999.90;999.90;;;10.30;99.90;;;;;;5009132;28;20799;-77
2023/04/12 10:17:45;;;;;;;1999.90;999.90;;;10.30;99.90;;;;;;5012810;28;20436;-75
2023/04/12 10:20:12;;;;;;;1999.90;999.90;;;10.20;99.90;;;;;;5014898;28;20438;-74
2023/04/12 10:22:41;;;;;;;1999.90;999.90;;;10.20;99.90;;;;;;5015262;28;20797;-73
2023/04/12 10:25:12;;;;;;;1999.90;999.90;;;10.10;99.90;;;;;;5012331;28;20522;-71
2023/04/12 10:27:41;;;;;;;1999.90;999.90;;;9.90;99.90;;;;;;5012794;28;20514;-72
2023/04/12 10:30:26;;;;;;;1999.90;999.90;;;9.70;99.90;;;;;;5013384;28;20422;-74
2023/04/12 10:33:11;;;;;;;1999.90;999.90;;;9.70;99.90;;;;;;5018608;28;20510;-73
2023/04/12 10:35:50;;;;;;;1999.90;999.90;;;9.60;99.90;;;;;;5016396;28;20431;-70
2023/04/12 10:38:17;;;;;;;1999.90;999.90;;;9.60;99.90;;;;;;5030214;23;20429;-74
2023/04/12 10:41:11;;;;;;;1999.90;999.90;;;9.60;99.90;;;;;;5052861;28;20495;-75
2023/04/12 10:43:38;;;;;;;1999.90;999.90;;;9.50;99.90;;;;;;5060034;28;20485;-72
2023/04/12 10:46:06;;;;;;;1999.90;999.90;;;9.50;99.90;;;;;;5061456;28;20970;-72
2023/04/12 10:48:34;;;;;;;1999.90;999.90;;;9.60;99.90;;;;;;5064137;28;20846;-73
2023/04/12 10:51:22;;;;;;;1999.90;999.90;;;9.60;99.90;;;;;;5058386;28;20910;-72
2023/04/12 10:53:49;;;;;;;1999.90;999.90;;;9.60;99.90;;;;;;5053802;28;20440;-73
2023/04/12 10:56:35;;;;;;;1999.90;999.90;;;9.50;99.90;;;;;;5066637;28;20440;-72
2023/04/12 10:59:03;;;;;;;1999.90;999.90;;;9.50;99.90;;;;;;5055944;28;20924;-73
2023/04/12 11:01:31;;;;;;;1999.90;999.90;;;9.60;99.90;;;;;;5057267;28;20441;-71
2023/04/12 11:04:12;;;;;;;1999.90;999.90;;;9.60;99.90;;;;;;5056284;28;20436;-67
2023/04/12 11:06:57;;;;;;;1999.90;999.90;;;9.60;99.90;;;;;;5059692;28;20470;-76
2023/04/12 11:09:25;;;;;;;1999.90;999.90;;;9.60;99.90;;;;;;5066900;28;20460;-73
2023/04/12 11:11:57;;;;;;;1999.90;999.90;;;9.60;99.90;;;;;;5060900;28;20435;-70
2023/04/12 11:14:29;;;;;;;1999.90;999.90;;;9.60;99.90;;;;;;5055288;28;20491;-73
2023/04/12 11:17:25;;;;;;;1999.90;999.90;;;9.50;99.90;;;;;;5053704;28;20441;-73
2023/04/12 11:19:57;;;;;;;1999.90;999.90;;;9.50;99.90;;;;;;5065131;28;20435;-72
2023/04/12 11:22:27;;;;;;;1999.90;999.90;;;9.50;99.90;;;;;;5063361;28;20425;-73
2023/04/12 11:24:56;;;;;;;1999.90;999.90;;;9.40;99.90;;;;;;5057335;28;20472;-71
2023/04/12 11:27:24;;;;;;;1999.90;999.90;;;9.50;99.90;;;;;;5046062;28;20538;-70
2023/04/12 11:29:54;;;;;;;1999.90;999.90;;;9.60;99.90;;;;;;5051252;28;22169;-72
2023/04/12 11:32:22;;;;;;;1999.90;999.90;;;9.60;99.90;;;;;;5057839;28;20435;-74
2023/04/12 11:34:50;;;;;;;1999.90;999.90;;;9.60;99.90;;;;;;5055533;28;20548;-74
2023/04/12 11:37:19;;;;;;;1999.90;999.90;;;9.60;99.90;;;;;;5052014;28;20463;-71
2023/04/12 11:39:47;;;;;;;1999.90;999.90;;;9.60;99.90;;;;;;5047397;28;20442;-73
2023/04/12 11:42:15;;;;;;;1999.90;999.90;;;9.60;99.90;;;;;;5051751;28;20463;-72
2023/04/12 11:44:43;;;;;;;1999.90;999.90;;;9.60;99.90;;;;;;5064500;28;20484;-74
2023/04/12 11:47:17;;;;;;;1999.90;999.90;;;9.80;99.90;;;;;;5058780;28;20431;-74
2023/04/12 11:49:45;;;;;;;1999.90;999.90;;;9.90;99.90;;;;;;5056899;28;20459;-75
2023/04/12 11:52:15;;;;;;;1999.90;999.90;;;9.80;99.90;;;;;;5047452;28;20440;-70
2023/04/12 11:54:44;;;;;;;1999.90;999.90;;;9.80;99.90;;;;;;5051678;28;20493;-73
2023/04/12 11:57:15;;;;;;;1999.90;999.90;;;9.80;99.90;;;;;;5065545;28;20432;-75
2023/04/12 11:59:47;;;;;;;1999.90;999.90;;;9.60;99.90;;;;;;5056489;28;20516;-73
2023/04/12 12:02:15;;;;;;;1999.90;999.90;;;9.70;99.90;;;;;;5053355;28;20477;-74
2023/04/12 12:04:44;;;;;;;1999.90;999.90;;;9.70;99.90;;;;;;5045997;28;20441;-69
2023/04/12 12:07:13;;;;;;;1999.90;999.90;;;9.70;99.90;;;;;;5050015;28;20435;-72
2023/04/12 12:09:42;;;;;;;1999.90;999.90;;;9.80;99.90;;;;;;5061074;28;20409;-73
2023/04/12 12:12:10;;;;;;;1999.90;999.90;;;9.90;99.90;;;;;;5038726;28;20421;-71